Cape Texel — V7RC4 — position and weather

sailwx.info

Track history (hours):
 
Tides and Currents Weather Stations Pressure Air Temp Water Temp Dewpoint Dewpoint Depression Visibility Wind Speed Wind Dir Waves Ship Positions

Cape Texel

Last reported at 2014-Aug-31 11:31 UTC. Time now 2014-Sep-01 08:00 UTC.
Position N 23°46' E 120°05'.

Length 228 m; draft 8.2 m.

Type: Ship (hazmat cat A). MMSI: 538090383.

Date/timePositionNaut miles runAvg speedWind from/ knotsBaromVisibWave heightAir tempDewpointWater temp
2014-Aug-31 11:31N 23°46' E 120°05'  
2014-Aug-29 03:08N 22°50' E 119°54'814.5
2014-Aug-29 02:33N 22°42' E 119°55'1312.7
2014-Aug-29 01:34N 22°33' E 120°05'1211.9
2014-Aug-29 00:34N 22°33' E 120°18'2 0.3
2014-Aug-28 18:07N 22°32' E 120°20'0 0.0
2014-Aug-28 12:13N 22°32' E 120°20'0 0.0
2014-Aug-28 07:19N 22°32' E 120°20'0 0.0
2014-Aug-28 01:25N 22°32' E 120°20'0 0.0
2014-Aug-27 17:25N 22°32' E 120°20'0 0.0
2014-Aug-27 04:30N 22°32' E 120°20'0 0.0
2014-Aug-27 01:24N 22°32' E 120°20'0 0.0
2014-Aug-27 00:30N 22°32' E 120°20'0 0.2
2014-Aug-26 23:33N 22°33' E 120°20'5 5.4
2014-Aug-26 22:33N 22°30' E 120°15'1 1.2
2014-Aug-26 21:29N 22°29' E 120°15'0 0.0
2014-Aug-26 20:17N 22°29' E 120°15'0 0.0
2014-Aug-26 19:23N 22°29' E 120°15'0 0.1
2014-Aug-26 18:11N 22°29' E 120°15'0 0.0
2014-Aug-26 17:23N 22°29' E 120°15'0 0.1
2014-Aug-26 16:29N 22°29' E 120°15'3 3.4
2014-Aug-26 15:33N 22°28' E 120°13'1110.7
2014-Aug-26 14:33N 22°17' E 120°15'  
Track history (hours):
 
Tides and Currents Weather Stations Pressure Air Temp Water Temp Dewpoint Dewpoint Depression Visibility Wind Speed Wind Dir Waves Ship Positions

Cape Texel

Last reported at 2014-Aug-31 11:31 UTC. Time now 2014-Sep-01 08:00 UTC.
Position N 23°46' E 120°05'.

Length 228 m; draft 8.2 m.

Type: Ship (hazmat cat A). MMSI: 538090383.

Date/timePositionNaut miles runAvg speedWind from/ knotsBaromVisibWave heightAir tempDewpointWater temp
2014-Aug-31 11:31N 23°46' E 120°05'  
2014-Aug-29 03:08N 22°50' E 119°54'814.5
2014-Aug-29 02:33N 22°42' E 119°55'1312.7
2014-Aug-29 01:34N 22°33' E 120°05'1211.9
2014-Aug-29 00:34N 22°33' E 120°18'2 0.3
2014-Aug-28 18:07N 22°32' E 120°20'0 0.0
2014-Aug-28 12:13N 22°32' E 120°20'0 0.0
2014-Aug-28 07:19N 22°32' E 120°20'0 0.0
2014-Aug-28 01:25N 22°32' E 120°20'0 0.0
2014-Aug-27 17:25N 22°32' E 120°20'0 0.0
2014-Aug-27 04:30N 22°32' E 120°20'0 0.0
2014-Aug-27 01:24N 22°32' E 120°20'0 0.0
2014-Aug-27 00:30N 22°32' E 120°20'0 0.2
2014-Aug-26 23:33N 22°33' E 120°20'5 5.4
2014-Aug-26 22:33N 22°30' E 120°15'1 1.2
2014-Aug-26 21:29N 22°29' E 120°15'0 0.0
2014-Aug-26 20:17N 22°29' E 120°15'0 0.0
2014-Aug-26 19:23N 22°29' E 120°15'0 0.1
2014-Aug-26 18:11N 22°29' E 120°15'0 0.0
2014-Aug-26 17:23N 22°29' E 120°15'0 0.1
2014-Aug-26 16:29N 22°29' E 120°15'3 3.4
2014-Aug-26 15:33N 22°28' E 120°13'1110.7
2014-Aug-26 14:33N 22°17' E 120°15'  

Dump ship's entire track history